createdAt,value
2023-06-17T00:00:46.542Z,54.89
2023-06-17T00:01:47.508Z,58.42
2023-06-17T00:02:47.527Z,57.75
2023-06-17T00:03:47.511Z,57.17
2023-06-17T00:04:47.476Z,57.15
2023-06-17T00:05:46.474Z,57.40
2023-06-17T00:06:47.512Z,59.36
2023-06-17T00:07:47.517Z,58.08
2023-06-17T00:08:47.495Z,57.19
2023-06-17T00:09:47.466Z,58.46
2023-06-17T00:10:47.471Z,58.11
2023-06-17T00:11:47.480Z,59.56
2023-06-17T00:12:47.476Z,56.01
2023-06-17T00:13:47.464Z,57.00
2023-06-17T00:14:47.445Z,58.03
2023-06-17T00:15:47.466Z,59.70
2023-06-17T00:16:47.461Z,57.95
2023-06-17T00:17:46.555Z,57.41
2023-06-17T00:18:46.448Z,57.13
2023-06-17T00:19:46.454Z,56.53
2023-06-17T00:20:47.458Z,55.72
2023-06-17T00:21:46.442Z,57.33
2023-06-17T00:22:47.480Z,55.17
2023-06-17T00:23:47.470Z,59.48
2023-06-17T00:24:46.456Z,57.26
2023-06-17T00:25:47.452Z,57.07
2023-06-17T00:26:47.465Z,61.09
2023-06-17T00:27:47.455Z,56.03
2023-06-17T00:28:47.444Z,57.87
2023-06-17T00:29:47.452Z,54.40
2023-06-17T00:30:47.442Z,56.07
2023-06-17T00:31:47.455Z,55.71
2023-06-17T00:32:47.518Z,55.76
2023-06-17T00:33:46.438Z,56.77
2023-06-17T00:34:46.429Z,59.43
2023-06-17T00:35:46.436Z,57.68
2023-06-17T00:36:46.449Z,53.43
2023-06-17T00:37:47.450Z,56.86
2023-06-17T00:38:47.448Z,55.32
2023-06-17T00:39:47.426Z,55.49
2023-06-17T00:40:47.415Z,54.72
2023-06-17T00:41:46.417Z,57.68
2023-06-17T00:42:47.429Z,56.74
2023-06-17T00:43:46.423Z,55.41
2023-06-17T00:44:46.412Z,56.05
2023-06-17T00:45:47.419Z,53.78
2023-06-17T00:46:47.502Z,55.90
2023-06-17T00:47:46.438Z,56.08
2023-06-17T00:48:47.392Z,57.81
2023-06-17T00:49:47.412Z,58.23
2023-06-17T00:50:47.492Z,56.98
2023-06-17T00:51:56.137Z,55.55
2023-06-17T00:52:47.419Z,55.88
2023-06-17T00:53:47.405Z,56.16
2023-06-17T00:54:47.409Z,56.10
2023-06-17T00:55:46.393Z,56.43
2023-06-17T00:56:47.350Z,53.98
2023-06-17T00:57:47.350Z,57.65
2023-06-17T00:58:47.353Z,57.41
2023-06-17T00:59:47.339Z,55.30
2023-06-17T01:00:46.339Z,55.04
2023-06-17T01:01:46.333Z,54.22
2023-06-17T01:02:47.424Z,54.25
2023-06-17T01:03:46.547Z,55.41
2023-06-17T01:04:47.302Z,52.29
2023-06-17T01:05:47.308Z,57.33
2023-06-17T01:06:47.293Z,52.94
2023-06-17T01:07:47.495Z,55.17
2023-06-17T01:08:47.291Z,57.44
2023-06-17T01:09:47.277Z,53.42
2023-06-17T01:10:47.289Z,57.14
2023-06-17T01:11:47.250Z,56.56
2023-06-17T01:12:47.263Z,52.34
2023-06-17T01:13:47.239Z,54.26
2023-06-17T01:14:47.253Z,52.90
2023-06-17T01:15:47.301Z,53.29
2023-06-17T01:16:47.218Z,54.94
2023-06-17T01:17:47.565Z,55.96
2023-06-17T01:18:47.240Z,54.95
2023-06-17T01:19:47.204Z,53.63
2023-06-17T01:20:47.205Z,51.62
2023-06-17T01:21:47.186Z,53.50
2023-06-17T01:22:47.181Z,54.38
2023-06-17T01:23:46.189Z,53.54
2023-06-17T01:24:47.182Z,53.77
2023-06-17T01:25:46.186Z,53.63
2023-06-17T01:26:47.201Z,53.22
2023-06-17T01:27:47.228Z,56.56
2023-06-17T01:28:47.146Z,53.56
2023-06-17T01:29:47.146Z,54.41
2023-06-17T01:30:47.152Z,51.49
2023-06-17T01:31:47.140Z,57.10
2023-06-17T01:32:46.186Z,56.48
2023-06-17T01:33:47.141Z,52.49
2023-06-17T01:34:47.101Z,52.67
2023-06-17T01:35:46.089Z,53.35
2023-06-17T01:36:47.094Z,52.78
2023-06-17T01:37:47.123Z,53.62
2023-06-17T01:38:47.085Z,54.03
2023-06-17T01:39:47.096Z,51.55
2023-06-17T01:40:47.061Z,51.25
2023-06-17T01:41:47.050Z,52.70
2023-06-17T01:42:47.083Z,51.09
2023-06-17T01:43:47.046Z,52.53
2023-06-17T01:44:47.033Z,53.09
2023-06-17T01:45:47.100Z,53.25
2023-06-17T01:46:47.044Z,52.77
2023-06-17T01:47:46.053Z,53.19
2023-06-17T01:48:47.057Z,50.96
2023-06-17T01:49:46.005Z,50.58
2023-06-17T01:50:46.036Z,51.98
2023-06-17T01:51:46.985Z,53.65
2023-06-17T01:52:45.992Z,53.60
2023-06-17T01:53:46.976Z,53.36
2023-06-17T01:54:46.983Z,51.23
2023-06-17T01:55:45.973Z,53.42
2023-06-17T01:56:46.957Z,49.92
2023-06-17T01:57:46.966Z,51.14
2023-06-17T01:58:46.966Z,49.13
2023-06-17T01:59:46.939Z,55.71
2023-06-17T02:00:45.939Z,53.00
2023-06-17T02:01:46.959Z,52.06
2023-06-17T02:02:46.980Z,50.89
2023-06-17T02:03:46.942Z,52.31
2023-06-17T02:04:46.912Z,50.97
2023-06-17T02:05:46.908Z,52.44
2023-06-17T02:06:46.900Z,53.93
2023-06-17T02:07:46.913Z,50.57
2023-06-17T02:08:46.889Z,51.77
2023-06-17T02:09:45.912Z,52.22
2023-06-17T02:10:46.908Z,54.14
2023-06-17T02:11:46.912Z,49.92
2023-06-17T02:12:46.932Z,51.55
2023-06-17T02:13:46.945Z,50.11
2023-06-17T02:14:46.953Z,52.12
2023-06-17T02:15:46.963Z,52.54
2023-06-17T02:16:46.939Z,52.95
2023-06-17T02:17:46.960Z,50.07
2023-06-17T02:18:46.958Z,52.60
2023-06-17T02:19:46.941Z,50.33
2023-06-17T02:20:46.926Z,52.35
2023-06-17T02:21:45.927Z,51.22
2023-06-17T02:22:46.928Z,51.75
2023-06-17T02:23:47.002Z,51.51
2023-06-17T02:24:46.948Z,50.91
2023-06-17T02:25:46.965Z,46.91
2023-06-17T02:26:46.942Z,49.61
2023-06-17T02:27:45.962Z,47.95
2023-06-17T02:28:45.963Z,51.14
2023-06-17T02:29:46.945Z,49.53
2023-06-17T02:30:45.989Z,48.93
2023-06-17T02:31:47.019Z,50.49
2023-06-17T02:32:47.030Z,52.19
2023-06-17T02:33:45.960Z,49.96
2023-06-17T02:34:47.050Z,47.57
2023-06-17T02:35:46.967Z,49.69
2023-06-17T02:36:46.997Z,49.36
2023-06-17T02:37:45.990Z,51.50
2023-06-17T02:38:47.007Z,48.54
2023-06-17T02:39:45.990Z,49.80
2023-06-17T02:40:47.011Z,48.97
2023-06-17T02:41:47.023Z,49.79
2023-06-17T02:42:46.023Z,49.51
2023-06-17T02:43:47.033Z,49.20
2023-06-17T02:44:46.023Z,49.75
2023-06-17T02:45:47.023Z,48.34
2023-06-17T02:46:46.062Z,48.36
2023-06-17T02:47:47.076Z,48.07
2023-06-17T02:48:47.046Z,49.73
2023-06-17T02:49:47.042Z,48.02
2023-06-17T02:50:47.036Z,50.61
2023-06-17T02:51:47.041Z,50.07
2023-06-17T02:52:47.068Z,50.37
2023-06-17T02:53:46.058Z,51.50
2023-06-17T02:54:46.091Z,50.10
2023-06-17T02:55:47.060Z,50.36
2023-06-17T02:56:47.087Z,52.48
2023-06-17T02:57:47.090Z,50.04
2023-06-17T02:58:47.094Z,48.05
2023-06-17T02:59:47.093Z,48.31
2023-06-17T03:00:47.117Z,46.81
2023-06-17T03:01:47.135Z,49.36
2023-06-17T03:02:47.208Z,51.08
2023-06-17T03:03:47.098Z,47.72
2023-06-17T03:04:46.111Z,46.51
2023-06-17T03:05:46.120Z,47.80
2023-06-17T03:06:46.138Z,49.90
2023-06-17T03:07:47.134Z,48.83
2023-06-17T03:08:47.130Z,50.50
2023-06-17T03:09:47.160Z,47.79
2023-06-17T03:10:47.139Z,49.85
2023-06-17T03:11:47.148Z,46.16
2023-06-17T03:12:46.191Z,46.99
2023-06-17T03:13:47.170Z,47.96
2023-06-17T03:14:47.200Z,47.33
2023-06-17T03:15:47.200Z,48.86
2023-06-17T03:16:47.274Z,47.51
2023-06-17T03:17:47.320Z,46.71
2023-06-17T03:18:47.247Z,49.67
2023-06-17T03:19:47.247Z,48.85
2023-06-17T03:20:47.227Z,47.48
2023-06-17T03:21:47.215Z,47.89
2023-06-17T03:22:47.243Z,48.29
2023-06-17T03:23:46.237Z,48.39
2023-06-17T03:24:47.247Z,49.10
2023-06-17T03:25:46.251Z,49.34
2023-06-17T03:26:47.266Z,48.19
2023-06-17T03:27:47.250Z,45.98
2023-06-17T03:28:46.247Z,47.26
2023-06-17T03:29:46.260Z,49.60
2023-06-17T03:30:47.303Z,49.55
2023-06-17T03:31:47.270Z,45.00
2023-06-17T03:32:47.293Z,47.09
2023-06-17T03:33:46.291Z,48.85
2023-06-17T03:34:47.309Z,46.66
2023-06-17T03:35:47.296Z,45.78
2023-06-17T03:36:47.302Z,43.54
2023-06-17T03:37:47.310Z,44.91
2023-06-17T03:38:47.328Z,50.15
2023-06-17T03:39:47.317Z,47.54
2023-06-17T03:40:46.329Z,46.05
2023-06-17T03:41:46.326Z,47.82
2023-06-17T03:42:47.314Z,48.77
2023-06-17T03:43:46.308Z,48.55
2023-06-17T03:44:47.325Z,45.78
2023-06-17T03:45:46.295Z,45.41
2023-06-17T03:46:47.292Z,45.81
2023-06-17T03:47:47.380Z,46.60
2023-06-17T03:48:46.299Z,47.23
2023-06-17T03:49:47.315Z,44.01
2023-06-17T03:50:47.329Z,48.22
2023-06-17T03:51:46.315Z,42.87
2023-06-17T03:52:47.348Z,46.27
2023-06-17T03:53:47.328Z,44.68
2023-06-17T03:54:47.328Z,45.67
2023-06-17T03:55:46.347Z,45.85
2023-06-17T03:56:47.331Z,44.42
2023-06-17T03:57:46.332Z,43.66
2023-06-17T03:58:47.327Z,47.99
2023-06-17T03:59:47.344Z,46.20
2023-06-17T04:00:47.346Z,46.14
2023-06-17T04:01:46.352Z,46.71
2023-06-17T04:02:47.460Z,43.41
2023-06-17T04:03:47.438Z,43.87
2023-06-17T04:04:47.348Z,44.38
2023-06-17T04:05:47.347Z,45.41
2023-06-17T04:06:46.375Z,46.14
2023-06-17T04:07:46.338Z,43.67
2023-06-17T04:08:47.352Z,44.15
2023-06-17T04:09:58.180Z,44.71
2023-06-17T04:10:47.343Z,45.06
2023-06-17T04:11:47.342Z,45.86
2023-06-17T04:12:46.340Z,46.43
2023-06-17T04:13:47.317Z,45.88
2023-06-17T04:14:47.308Z,45.19
2023-06-17T04:15:47.320Z,47.52
2023-06-17T04:16:46.313Z,44.46
2023-06-17T04:17:47.365Z,47.49
2023-06-17T04:18:46.280Z,44.99
2023-06-17T04:19:47.287Z,45.00
2023-06-17T04:20:47.284Z,46.39
2023-06-17T04:21:47.283Z,46.19
2023-06-17T04:22:47.316Z,46.67
2023-06-17T04:23:47.275Z,45.72
2023-06-17T04:24:47.269Z,47.03
2023-06-17T04:25:46.237Z,46.54
2023-06-17T04:26:47.239Z,46.41
2023-06-17T04:27:46.232Z,43.80
2023-06-17T04:28:47.305Z,47.98
2023-06-17T04:29:47.224Z,45.67
2023-06-17T04:30:47.245Z,45.35
2023-06-17T04:31:46.204Z,47.16
2023-06-17T04:32:47.244Z,45.36
2023-06-17T04:33:47.208Z,42.48
2023-06-17T04:34:47.209Z,45.36
2023-06-17T04:35:47.187Z,45.95
2023-06-17T04:36:46.184Z,43.24
2023-06-17T04:37:47.173Z,43.55
2023-06-17T04:38:47.197Z,44.84
2023-06-17T04:39:47.156Z,45.53
2023-06-17T04:40:46.143Z,44.62
2023-06-17T04:41:47.228Z,40.78
2023-06-17T04:42:47.166Z,43.30
2023-06-17T04:43:47.128Z,44.17
2023-06-17T04:44:46.120Z,47.01
2023-06-17T04:45:47.120Z,45.55
2023-06-17T04:46:46.154Z,43.66
2023-06-17T04:47:47.173Z,44.25
2023-06-17T04:48:47.100Z,47.15
2023-06-17T04:49:47.093Z,44.60
2023-06-17T04:50:47.082Z,44.93
2023-06-17T04:51:47.070Z,41.80
2023-06-17T04:52:47.056Z,43.95
2023-06-17T04:53:47.044Z,45.13
2023-06-17T04:54:47.056Z,46.10
2023-06-17T04:55:47.062Z,45.57
2023-06-17T04:56:47.046Z,43.62
2023-06-17T04:57:46.075Z,43.43
2023-06-17T04:58:47.037Z,42.47
2023-06-17T04:59:47.001Z,42.96
2023-06-17T05:00:46.117Z,42.91
2023-06-17T05:01:46.983Z,42.19
2023-06-17T05:02:46.079Z,47.04
2023-06-17T05:03:47.043Z,40.76
2023-06-17T05:04:46.977Z,45.17
2023-06-17T05:05:46.968Z,43.05
2023-06-17T05:06:46.987Z,45.91
2023-06-17T05:07:46.944Z,46.24
2023-06-17T05:08:46.940Z,41.30
2023-06-17T05:09:46.929Z,43.81
2023-06-17T05:10:45.979Z,43.23
2023-06-17T05:11:45.924Z,43.68
2023-06-17T05:12:46.972Z,44.38
2023-06-17T05:13:46.937Z,44.82
2023-06-17T05:14:46.920Z,47.68
2023-06-17T05:15:45.887Z,42.16
2023-06-17T05:16:46.938Z,41.87
2023-06-17T05:17:45.949Z,42.04
2023-06-17T05:18:45.886Z,44.03
2023-06-17T05:19:46.882Z,44.58
2023-06-17T05:20:46.869Z,43.32
2023-06-17T05:21:45.858Z,43.36
2023-06-17T05:22:46.849Z,41.39
2023-06-17T05:23:46.945Z,42.93
2023-06-17T05:24:46.874Z,45.83
2023-06-17T05:25:46.834Z,45.19
2023-06-17T05:26:46.867Z,44.31
2023-06-17T05:27:46.825Z,41.49
2023-06-17T05:28:45.838Z,44.26
2023-06-17T05:29:46.806Z,44.20
2023-06-17T05:30:45.827Z,44.55
2023-06-17T05:31:46.802Z,44.45
2023-06-17T05:32:46.871Z,42.40
2023-06-17T05:33:45.783Z,45.67
2023-06-17T05:34:46.776Z,46.94
2023-06-17T05:35:46.776Z,42.76
2023-06-17T05:36:46.786Z,43.56
2023-06-17T05:37:46.783Z,43.32
2023-06-17T05:38:46.754Z,44.41
2023-06-17T05:39:46.738Z,42.99
2023-06-17T05:40:46.758Z,42.96
2023-06-17T05:41:46.754Z,44.31
2023-06-17T05:42:46.784Z,45.34
2023-06-17T05:43:45.723Z,42.89
2023-06-17T05:44:46.725Z,46.69
2023-06-17T05:45:46.701Z,45.77
2023-06-17T05:46:45.756Z,44.82
2023-06-17T05:47:45.787Z,41.83
2023-06-17T05:48:46.715Z,42.05
2023-06-17T05:49:46.691Z,44.94
2023-06-17T05:50:46.687Z,41.97
2023-06-17T05:51:46.674Z,42.49
2023-06-17T05:52:46.665Z,43.81
2023-06-17T05:53:46.888Z,40.38
2023-06-17T05:54:46.659Z,45.23
2023-06-17T05:55:46.651Z,46.13
2023-06-17T05:56:46.666Z,43.01
2023-06-17T05:57:46.661Z,46.37
2023-06-17T05:58:46.662Z,47.70
2023-06-17T05:59:46.613Z,42.66
2023-06-17T06:00:46.634Z,42.69
2023-06-17T06:01:46.654Z,41.30
2023-06-17T06:02:46.699Z,42.56
2023-06-17T06:03:46.673Z,40.48
2023-06-17T06:04:45.587Z,44.19
2023-06-17T06:05:46.609Z,47.32
2023-06-17T06:06:46.589Z,40.67
2023-06-17T06:07:46.585Z,39.06
2023-06-17T06:08:46.574Z,43.35
2023-06-17T06:09:46.567Z,43.24
2023-06-17T06:10:45.562Z,42.47
2023-06-17T06:11:46.589Z,41.22
2023-06-17T06:12:46.562Z,42.83
2023-06-17T06:13:46.572Z,43.75
2023-06-17T06:14:46.603Z,45.12
2023-06-17T06:15:45.560Z,43.54
2023-06-17T06:16:46.776Z,47.61
2023-06-17T06:17:45.624Z,43.21
2023-06-17T06:18:46.618Z,42.76
2023-06-17T06:19:46.614Z,44.24
2023-06-17T06:20:46.622Z,42.56
2023-06-17T06:21:45.602Z,42.43
2023-06-17T06:22:46.625Z,45.11
2023-06-17T06:23:46.616Z,47.06
2023-06-17T06:24:46.714Z,43.39
2023-06-17T06:25:45.622Z,47.43
2023-06-17T06:26:46.651Z,48.12
2023-06-17T06:27:45.639Z,43.93
2023-06-17T06:28:45.647Z,41.90
2023-06-17T06:29:46.660Z,40.39
2023-06-17T06:30:46.700Z,45.74
2023-06-17T06:31:46.687Z,44.14
2023-06-17T06:32:45.731Z,44.08
2023-06-17T06:33:46.686Z,42.07
2023-06-17T06:34:46.733Z,43.51
2023-06-17T06:35:45.701Z,43.10
2023-06-17T06:36:45.722Z,40.00
2023-06-17T06:37:46.721Z,44.29
2023-06-17T06:38:46.745Z,42.56
2023-06-17T06:39:46.742Z,42.46
2023-06-17T06:40:46.755Z,46.01
2023-06-17T06:41:45.762Z,43.40
2023-06-17T06:42:46.769Z,41.30
2023-06-17T06:43:45.787Z,43.02
2023-06-17T06:44:46.775Z,41.31
2023-06-17T06:45:46.803Z,47.20
2023-06-17T06:46:46.817Z,42.36
2023-06-17T06:47:46.872Z,41.50
2023-06-17T06:48:45.844Z,42.65
2023-06-17T06:49:46.814Z,45.19
2023-06-17T06:50:46.834Z,43.40
2023-06-17T06:51:46.851Z,43.63
2023-06-17T06:52:46.858Z,44.13
2023-06-17T06:53:46.868Z,42.73
2023-06-17T06:54:46.865Z,41.75
2023-06-17T06:55:46.872Z,43.30
2023-06-17T06:56:45.895Z,45.48
2023-06-17T06:57:45.906Z,41.72
2023-06-17T06:58:46.905Z,43.91
2023-06-17T06:59:46.931Z,44.24
2023-06-17T07:00:46.983Z,44.87
2023-06-17T07:01:45.951Z,42.73
2023-06-17T07:02:46.042Z,44.31
2023-06-17T07:03:46.949Z,44.75
2023-06-17T07:04:47.161Z,41.94
2023-06-17T07:05:46.951Z,42.04
2023-06-17T07:06:46.962Z,46.09
2023-06-17T07:07:46.971Z,45.59
2023-06-17T07:08:46.975Z,44.56
2023-06-17T07:09:46.967Z,42.33
2023-06-17T07:10:47.000Z,41.33
2023-06-17T07:11:46.995Z,44.19
2023-06-17T07:12:47.003Z,43.36
2023-06-17T07:13:46.994Z,43.66
2023-06-17T07:14:46.017Z,42.19
2023-06-17T07:15:47.007Z,42.31
2023-06-17T07:16:47.047Z,45.92
2023-06-17T07:17:47.054Z,42.61
2023-06-17T07:18:46.152Z,42.59
2023-06-17T07:19:46.028Z,45.66
2023-06-17T07:20:47.072Z,48.92
2023-06-17T07:21:46.108Z,42.10
2023-06-17T07:22:46.112Z,43.50
2023-06-17T07:23:47.140Z,43.28
2023-06-17T07:24:47.161Z,42.48
2023-06-17T07:25:47.163Z,44.69
2023-06-17T07:26:47.183Z,44.01
2023-06-17T07:27:47.185Z,44.91
2023-06-17T07:28:47.225Z,42.47
2023-06-17T07:29:47.258Z,42.89
2023-06-17T07:30:47.326Z,43.45
2023-06-17T07:31:46.316Z,42.71
2023-06-17T07:32:47.356Z,41.28
2023-06-17T07:33:47.348Z,44.80
2023-06-17T07:34:47.382Z,41.33
2023-06-17T07:35:47.393Z,44.17
2023-06-17T07:36:47.443Z,42.40
2023-06-17T07:37:47.462Z,42.66
2023-06-17T07:38:47.512Z,45.59
2023-06-17T07:39:46.540Z,45.01
2023-06-17T07:40:47.576Z,46.57
2023-06-17T07:41:47.589Z,44.10
2023-06-17T07:42:46.633Z,42.78
2023-06-17T07:43:47.662Z,43.26
2023-06-17T07:44:47.705Z,44.00
2023-06-17T07:45:46.748Z,44.83
2023-06-17T07:46:46.810Z,42.34
2023-06-17T07:47:47.845Z,41.34
2023-06-17T07:48:47.845Z,43.84
2023-06-17T07:49:47.863Z,40.79
2023-06-17T07:50:48.016Z,42.95
2023-06-17T07:51:46.961Z,45.05
2023-06-17T07:52:47.982Z,42.43
2023-06-17T07:53:48.014Z,43.90
2023-06-17T07:54:48.074Z,45.03
2023-06-17T07:55:48.085Z,44.27
2023-06-17T07:56:48.141Z,44.66
2023-06-17T07:57:47.181Z,43.08
2023-06-17T07:58:48.208Z,47.53
2023-06-17T07:59:48.245Z,43.96
2023-06-17T08:00:47.280Z,44.50
2023-06-17T08:01:47.439Z,41.36
2023-06-17T08:02:48.528Z,44.45
2023-06-17T08:03:48.499Z,44.67
2023-06-17T08:04:48.449Z,44.11
2023-06-17T08:05:48.532Z,44.77
2023-06-17T08:06:48.594Z,45.83
2023-06-17T08:07:47.646Z,43.36
2023-06-17T08:08:48.674Z,42.94
2023-06-17T08:09:48.715Z,43.78
2023-06-17T08:10:48.769Z,46.10
2023-06-17T08:11:47.812Z,45.94
2023-06-17T08:12:48.848Z,44.14
2023-06-17T08:13:48.904Z,44.19
2023-06-17T08:14:48.945Z,44.67
2023-06-17T08:15:48.015Z,45.75
2023-06-17T08:16:49.306Z,46.36
2023-06-17T08:17:49.204Z,47.00
2023-06-17T08:18:49.225Z,47.42
2023-06-17T08:19:48.266Z,44.01
2023-06-17T08:20:49.337Z,43.47
2023-06-17T08:21:49.407Z,47.28
2023-06-17T08:22:49.483Z,45.63
2023-06-17T08:23:49.569Z,44.32
2023-06-17T08:24:48.598Z,44.92
2023-06-17T08:25:49.635Z,43.69
2023-06-17T08:26:48.709Z,44.70
2023-06-17T08:27:49.744Z,44.87
2023-06-17T08:28:49.850Z,45.31
2023-06-17T08:29:49.855Z,45.41
2023-06-17T08:30:49.899Z,43.17
2023-06-17T08:31:48.963Z,44.91
2023-06-17T08:32:50.051Z,44.96
2023-06-17T08:33:50.021Z,44.79
2023-06-17T08:34:50.021Z,44.85
2023-06-17T08:35:50.007Z,45.36
2023-06-17T08:36:50.012Z,44.53
2023-06-17T08:37:50.004Z,45.25
2023-06-17T08:38:50.023Z,43.13
2023-06-17T08:39:49.973Z,43.95
2023-06-17T08:40:49.988Z,43.53
2023-06-17T08:41:49.978Z,44.92
2023-06-17T08:42:49.967Z,46.37
2023-06-17T08:43:49.970Z,46.06
2023-06-17T08:44:48.962Z,45.32
2023-06-17T08:45:50.021Z,46.85
2023-06-17T08:46:49.984Z,46.38
2023-06-17T08:47:50.089Z,47.47
2023-06-17T08:48:50.004Z,42.96
2023-06-17T08:49:49.954Z,46.77
2023-06-17T08:50:49.971Z,44.94
2023-06-17T08:51:49.975Z,43.38
2023-06-17T08:52:50.456Z,43.83
2023-06-17T08:53:49.005Z,44.84
2023-06-17T08:54:50.111Z,46.38
2023-06-17T08:55:49.011Z,44.71
2023-06-17T08:56:50.030Z,43.99
2023-06-17T08:57:50.014Z,45.00
2023-06-17T08:58:50.021Z,46.25
2023-06-17T08:59:49.032Z,44.16
2023-06-17T09:00:49.061Z,46.42
2023-06-17T09:01:50.037Z,44.65
2023-06-17T09:02:49.052Z,45.45
2023-06-17T09:03:50.103Z,42.09
2023-06-17T09:04:50.140Z,45.85
2023-06-17T09:05:50.107Z,45.20
2023-06-17T09:06:50.067Z,46.64
2023-06-17T09:07:50.087Z,47.35
2023-06-17T09:08:49.091Z,46.09
2023-06-17T09:09:50.098Z,45.01
2023-06-17T09:10:49.155Z,44.97
2023-06-17T09:11:52.251Z,47.04
2023-06-17T09:12:50.143Z,53.96
2023-06-17T09:13:50.164Z,50.01
2023-06-17T09:14:50.114Z,46.16
2023-06-17T09:15:49.110Z,46.29
2023-06-17T09:16:49.167Z,46.85
2023-06-17T09:17:50.120Z,46.63
2023-06-17T09:18:49.097Z,47.04
2023-06-17T09:19:50.087Z,44.71
2023-06-17T09:20:50.078Z,44.68
2023-06-17T09:21:50.053Z,46.65
2023-06-17T09:22:49.045Z,45.43
2023-06-17T09:23:49.131Z,45.56
2023-06-17T09:24:50.041Z,45.49
2023-06-17T09:25:50.045Z,44.34
2023-06-17T09:26:50.063Z,41.78
2023-06-17T09:28:02.483Z,48.93
2023-06-17T09:28:50.038Z,49.24
2023-06-17T09:29:50.002Z,49.43
2023-06-17T09:30:49.985Z,49.05
2023-06-17T09:31:50.000Z,48.98
2023-06-17T09:32:50.009Z,48.39
2023-06-17T09:33:49.989Z,48.88
2023-06-17T09:34:48.984Z,47.95
2023-06-17T09:35:50.001Z,46.26
2023-06-17T09:36:48.956Z,47.32
2023-06-17T09:38:02.535Z,43.51
2023-06-17T09:38:49.950Z,43.93
2023-06-17T09:39:49.932Z,44.60
2023-06-17T09:40:50.005Z,45.24
2023-06-17T09:41:48.925Z,46.80
2023-06-17T09:42:49.930Z,47.68
2023-06-17T09:43:49.916Z,47.04
2023-06-17T09:44:49.895Z,45.93
2023-06-17T09:45:49.963Z,45.11
2023-06-17T09:46:48.915Z,49.22
2023-06-17T09:47:49.979Z,47.67
2023-06-17T09:48:49.883Z,44.04
2023-06-17T09:49:49.865Z,43.63
2023-06-17T09:50:49.899Z,46.89
2023-06-17T09:51:48.869Z,45.98
2023-06-17T09:52:49.836Z,46.62
2023-06-17T09:53:49.909Z,47.54
2023-06-17T09:54:48.920Z,48.22
2023-06-17T09:55:49.949Z,47.69
2023-06-17T09:56:49.016Z,46.72
2023-06-17T09:57:50.071Z,48.44
2023-06-17T09:58:50.157Z,47.84
2023-06-17T09:59:50.188Z,48.56
2023-06-17T10:00:50.247Z,48.21
2023-06-17T10:01:50.294Z,49.26
2023-06-17T10:02:50.414Z,46.28
2023-06-17T10:03:50.486Z,46.50
2023-06-17T10:04:49.443Z,48.17
2023-06-17T10:05:49.515Z,48.89
2023-06-17T10:06:50.565Z,47.36
2023-06-17T10:07:50.712Z,49.96
2023-06-17T10:08:50.723Z,48.58
2023-06-17T10:09:50.758Z,48.91
2023-06-17T10:10:50.854Z,52.32
2023-06-17T10:11:50.907Z,50.05
2023-06-17T10:12:50.981Z,49.56
2023-06-17T10:13:51.025Z,50.03
2023-06-17T10:14:51.134Z,49.49
2023-06-17T10:15:51.165Z,48.27
2023-06-17T10:16:51.227Z,51.76
2023-06-17T10:17:51.336Z,50.04
2023-06-17T10:18:50.353Z,49.56
2023-06-17T10:19:51.420Z,49.56
2023-06-17T10:20:51.477Z,50.23
2023-06-17T10:21:50.548Z,51.06
2023-06-17T10:22:51.619Z,49.91
2023-06-17T10:23:50.731Z,51.79
2023-06-17T10:24:51.750Z,47.03
2023-06-17T10:25:51.820Z,49.02
2023-06-17T10:26:51.892Z,46.43
2023-06-17T10:27:50.953Z,49.52
2023-06-17T10:28:51.017Z,47.72
2023-06-17T10:29:52.113Z,49.14
2023-06-17T10:30:52.167Z,47.69
2023-06-17T10:31:52.310Z,48.06
2023-06-17T10:32:52.553Z,50.78
2023-06-17T10:33:52.342Z,50.21
2023-06-17T10:34:52.419Z,46.31
2023-06-17T10:35:51.449Z,49.87
2023-06-17T10:36:51.523Z,49.47
2023-06-17T10:37:51.576Z,48.11
2023-06-17T10:38:52.670Z,48.39
2023-06-17T10:39:51.715Z,51.05
2023-06-17T10:40:52.772Z,50.19
2023-06-17T10:41:52.844Z,51.40
2023-06-17T10:42:52.901Z,51.85
2023-06-17T10:43:53.016Z,48.03
2023-06-17T10:44:53.047Z,50.30
2023-06-17T10:45:53.137Z,47.44
2023-06-17T10:46:53.192Z,49.09
2023-06-17T10:47:53.257Z,49.59
2023-06-17T10:48:53.292Z,47.11
2023-06-17T10:49:53.350Z,48.28
2023-06-17T10:50:53.465Z,48.91
2023-06-17T10:52:52.468Z,49.71
2023-06-17T10:53:53.459Z,49.84
2023-06-17T10:54:53.480Z,49.87
2023-06-17T10:55:53.448Z,47.88
2023-06-17T10:56:53.481Z,45.77
2023-06-17T10:57:53.429Z,49.76
2023-06-17T10:58:53.448Z,47.86
2023-06-17T10:59:53.454Z,50.50
2023-06-17T11:00:53.420Z,52.37
2023-06-17T11:01:53.416Z,49.47
2023-06-17T11:02:53.692Z,48.98
2023-06-17T11:03:52.516Z,49.19
2023-06-17T11:04:53.640Z,49.48
2023-06-17T11:05:53.616Z,48.18
2023-06-17T11:06:52.682Z,49.20
2023-06-17T11:07:53.730Z,48.37
2023-06-17T11:08:53.831Z,48.33
2023-06-17T11:09:53.899Z,49.65
2023-06-17T11:10:53.955Z,46.12
2023-06-17T11:11:53.990Z,51.13
2023-06-17T11:12:54.079Z,49.18
2023-06-17T11:13:54.120Z,52.51
2023-06-17T11:14:53.189Z,48.36
2023-06-17T11:15:54.249Z,51.14
2023-06-17T11:16:54.346Z,49.28
2023-06-17T11:17:54.379Z,48.95
2023-06-17T11:18:54.506Z,49.39
2023-06-17T11:19:54.595Z,48.31
2023-06-17T11:20:54.564Z,49.25
2023-06-17T11:21:53.631Z,46.79
2023-06-17T11:22:54.676Z,50.07
2023-06-17T11:23:54.801Z,46.69
2023-06-17T11:24:53.824Z,49.22
2023-06-17T11:25:54.891Z,48.93
2023-06-17T11:26:54.959Z,47.24
2023-06-17T11:27:54.979Z,50.08
2023-06-17T11:28:55.090Z,48.00
2023-06-17T11:29:55.091Z,46.39
2023-06-17T11:30:54.161Z,46.79
2023-06-17T11:31:55.206Z,50.56
2023-06-17T11:32:55.307Z,45.97
2023-06-17T11:33:54.345Z,51.13
2023-06-17T11:34:55.429Z,49.26
2023-06-17T11:35:54.463Z,47.85
2023-06-17T11:36:55.511Z,48.83
2023-06-17T11:37:55.644Z,45.82
2023-06-17T11:38:54.658Z,47.41
2023-06-17T11:39:54.697Z,47.52
2023-06-17T11:40:55.776Z,47.53
2023-06-17T11:41:55.824Z,50.08
2023-06-17T11:42:55.888Z,51.36
2023-06-17T11:43:55.948Z,47.68
2023-06-17T11:44:55.033Z,48.41
2023-06-17T11:45:56.100Z,47.32
2023-06-17T11:46:56.132Z,48.17
2023-06-17T11:47:56.334Z,49.97
2023-06-17T11:48:56.292Z,48.13
2023-06-17T11:49:55.295Z,49.99
2023-06-17T11:50:56.397Z,47.15
2023-06-17T11:51:56.424Z,45.65
2023-06-17T11:52:55.476Z,48.63
2023-06-17T11:53:56.566Z,47.37
2023-06-17T11:54:56.616Z,46.85
2023-06-17T11:55:56.657Z,50.56
2023-06-17T11:56:55.722Z,47.73
2023-06-17T11:57:56.828Z,47.84
2023-06-17T11:58:55.841Z,44.83
2023-06-17T11:59:56.904Z,46.92
2023-06-17T12:00:55.950Z,47.65
2023-06-17T12:01:57.063Z,46.31
2023-06-17T12:02:57.142Z,47.09
2023-06-17T12:03:56.205Z,48.37
2023-06-17T12:04:57.164Z,48.25
2023-06-17T12:05:56.235Z,48.82
2023-06-17T12:06:57.303Z,47.84
2023-06-17T12:07:57.328Z,48.57
2023-06-17T12:08:57.409Z,47.05
2023-06-17T12:09:56.461Z,45.22
2023-06-17T12:10:57.508Z,49.12
2023-06-17T12:11:57.573Z,44.66
2023-06-17T12:12:57.628Z,48.66
2023-06-17T12:13:57.670Z,48.50
2023-06-17T12:14:57.743Z,48.04
2023-06-17T12:15:57.817Z,45.60
2023-06-17T12:16:57.849Z,45.97
2023-06-17T12:17:57.947Z,47.54
2023-06-17T12:18:57.977Z,47.33
2023-06-17T12:19:58.047Z,46.45
2023-06-17T12:20:58.094Z,43.29
2023-06-17T12:21:58.143Z,47.10
2023-06-17T12:22:57.256Z,47.09
2023-06-17T12:23:58.261Z,49.92
2023-06-17T12:24:58.315Z,45.70
2023-06-17T12:25:57.365Z,47.53
2023-06-17T12:26:57.427Z,46.77
2023-06-17T12:27:58.480Z,44.04
2023-06-17T12:28:59.117Z,49.46
2023-06-17T12:29:58.527Z,47.85
2023-06-17T12:30:58.518Z,48.67
2023-06-17T12:31:58.516Z,48.84
2023-06-17T12:32:58.542Z,48.16
2023-06-17T12:33:58.563Z,50.90
2023-06-17T12:34:58.512Z,48.30
2023-06-17T12:35:57.492Z,45.55
2023-06-17T12:36:58.483Z,45.80
2023-06-17T12:37:58.488Z,46.06
2023-06-17T12:38:58.508Z,47.16
2023-06-17T12:39:58.502Z,47.64
2023-06-17T12:40:58.483Z,46.96
2023-06-17T12:41:58.480Z,46.47
2023-06-17T12:42:58.455Z,46.55
2023-06-17T12:43:58.441Z,47.95
2023-06-17T12:44:58.440Z,48.07
2023-06-17T12:45:58.534Z,49.22
2023-06-17T12:46:58.419Z,48.64
2023-06-17T12:47:58.465Z,47.11
2023-06-17T12:48:58.408Z,49.43
2023-06-17T12:49:58.410Z,46.54
2023-06-17T12:50:58.411Z,49.48
2023-06-17T12:51:58.392Z,50.19
2023-06-17T12:52:58.389Z,46.70
2023-06-17T12:53:58.379Z,46.37